PWSweather.com
Personal Weather Stations
Station Observations
KNHRINDG3
Converse Meadow Pond, Rindge, NH 03461

Converse Meadow PondRindge, NH 03461

Lat: 42.74, Lon: -71.98

Elevation: 1060

Station Type: Davis Vantage Pro 2

http://nhwoodworker.com/weather/index.php

High Low Average
Temperature 44.7°F7.1°C 31.2°F-0.4°C 37.9°F3.3°C
Dew Point 42.2°F5.7°C 25.1°F-3.8°C 33.1°F0.6°C
Winds 8.0 mph 12.9 kmh Calm Calm 1.0 mph SW1.6 kmh SW
Wind Gusts 17.0 mph27.4 kmh -- 3.0 mph4.8 kmh
Humidity 99% 56% 84%
Pressure 29.64 in1003.7 mb 29.36 in994.2 mb -
Precipitation 0.07 in1.8 mm - -
Hour Temp Dew Point Humidity Winds Wind Gusts Pressure Precip Precip Rate Daily Precip Total
12:00 AM 35.1°F1.7°C 29.0°F-1.7°C 78% Calm Calm -- 29.50 in999.0 mb 0.00 in0.0 mm 0.00 in/hr0.0 mm/hr 0.05 in1.3 mm
12:10 AM 34.5°F1.4°C 29.0°F-1.7°C 80% Calm Calm 2.0 mph3.2 kmh 29.50 in999.0 mb 0.00 in0.0 mm 0.00 in/hr0.0 mm/hr 0.05 in1.3 mm
12:20 AM 34.0°F1.1°C 28.4°F-2.0°C 80% Calm Calm 1.0 mph1.6 kmh 29.50 in999.0 mb 0.00 in0.0 mm 0.00 in/hr0.0 mm/hr 0.05 in1.3 mm
12:30 AM 33.5°F0.8°C 28.3°F-2.1°C 81% Calm Calm -- 29.49 in998.6 mb 0.00 in0.0 mm 0.00 in/hr0.0 mm/hr 0.05 in1.3 mm
12:40 AM 33.1°F0.6°C 28.2°F-2.1°C 82% Calm Calm -- 29.49 in998.6 mb 0.00 in0.0 mm 0.00 in/hr0.0 mm/hr 0.05 in1.3 mm
12:50 AM 32.9°F0.5°C 28.0°F-2.2°C 82% Calm Calm -- 29.49 in998.6 mb 0.00 in0.0 mm 0.00 in/hr0.0 mm/hr 0.05 in1.3 mm
01:00 AM 32.7°F0.4°C 28.1°F-2.2°C 83% Calm Calm -- 29.49 in998.6 mb 0.00 in0.0 mm 0.00 in/hr0.0 mm/hr 0.00 in0.0 mm
01:10 AM 32.8°F0.4°C 28.5°F-1.9°C 84% Calm Calm -- 29.49 in998.6 mb 0.00 in0.0 mm 0.00 in/hr0.0 mm/hr 0.00 in0.0 mm
01:20 AM 34.1°F1.2°C 30.0°F-1.1°C 85% Calm Calm 2.0 mph3.2 kmh 29.49 in998.6 mb 0.00 in0.0 mm 0.00 in/hr0.0 mm/hr 0.00 in0.0 mm
01:30 AM 35.4°F1.9°C 31.3°F-0.4°C 85% 1.0 mph SW1.6 kmh SW 2.0 mph3.2 kmh 29.49 in998.6 mb 0.00 in0.0 mm 0.00 in/hr0.0 mm/hr 0.00 in0.0 mm
01:40 AM 36.7°F2.6°C 32.6°F0.3°C 85% Calm Calm 3.0 mph4.8 kmh 29.48 in998.3 mb 0.00 in0.0 mm 0.00 in/hr0.0 mm/hr 0.00 in0.0 mm
01:50 AM 37.5°F3.1°C 33.7°F0.9°C 86% Calm Calm 2.0 mph3.2 kmh 29.47 in998.0 mb 0.00 in0.0 mm 0.00 in/hr0.0 mm/hr 0.00 in0.0 mm
02:00 AM 38.4°F3.6°C 34.3°F1.3°C 85% Calm Calm 1.0 mph1.6 kmh 29.46 in997.6 mb 0.00 in0.0 mm 0.00 in/hr0.0 mm/hr 0.00 in0.0 mm
02:10 AM 38.5°F3.6°C 34.4°F1.3°C 85% Calm Calm 1.0 mph1.6 kmh 29.46 in997.6 mb 0.00 in0.0 mm 0.00 in/hr0.0 mm/hr 0.00 in0.0 mm
02:20 AM 38.1°F3.4°C 33.4°F0.8°C 83% Calm Calm -- 29.46 in997.6 mb 0.00 in0.0 mm 0.00 in/hr0.0 mm/hr 0.00 in0.0 mm
02:30 AM 37.3°F2.9°C 32.3°F0.2°C 82% Calm Calm -- 29.46 in997.6 mb 0.00 in0.0 mm 0.00 in/hr0.0 mm/hr 0.00 in0.0 mm
02:40 AM 36.3°F2.4°C 31.6°F-0.2°C 83% Calm Calm -- 29.46 in997.6 mb 0.00 in0.0 mm 0.00 in/hr0.0 mm/hr 0.00 in0.0 mm
02:50 AM 35.2°F1.8°C 30.8°F-0.7°C 84% Calm Calm -- 29.45 in997.3 mb 0.00 in0.0 mm 0.00 in/hr0.0 mm/hr 0.00 in0.0 mm
03:00 AM 34.4°F1.3°C 30.6°F-0.8°C 86% Calm Calm -- 29.45 in997.3 mb 0.00 in0.0 mm 0.00 in/hr0.0 mm/hr 0.00 in0.0 mm
03:10 AM 33.6°F0.9°C 30.2°F-1.0°C 87% Calm Calm -- 29.44 in997.0 mb 0.00 in0.0 mm 0.00 in/hr0.0 mm/hr 0.00 in0.0 mm
03:20 AM 33.1°F0.6°C 30.2°F-1.0°C 89% Calm Calm -- 29.43 in996.6 mb 0.00 in0.0 mm 0.00 in/hr0.0 mm/hr 0.00 in0.0 mm
03:30 AM 32.6°F0.3°C 29.8°F-1.2°C 89% Calm Calm -- 29.43 in996.6 mb 0.00 in0.0 mm 0.00 in/hr0.0 mm/hr 0.00 in0.0 mm
03:40 AM 32.4°F0.2°C 29.8°F-1.2°C 90% Calm Calm -- 29.43 in996.6 mb 0.00 in0.0 mm 0.00 in/hr0.0 mm/hr 0.00 in0.0 mm
03:50 AM 32.1°F0.1°C 29.8°F-1.2°C 91% Calm Calm -- 29.41 in995.9 mb 0.00 in0.0 mm 0.00 in/hr0.0 mm/hr 0.00 in0.0 mm
04:00 AM 31.9°F-0.1°C 29.6°F-1.3°C 91% Calm Calm -- 29.41 in995.9 mb 0.00 in0.0 mm 0.00 in/hr0.0 mm/hr 0.00 in0.0 mm
04:10 AM 31.7°F-0.2°C 29.4°F-1.4°C 91% Calm Calm -- 29.40 in995.6 mb 0.00 in0.0 mm 0.00 in/hr0.0 mm/hr 0.00 in0.0 mm
04:20 AM 31.5°F-0.3°C 29.4°F-1.4°C 92% Calm Calm -- 29.39 in995.3 mb 0.00 in0.0 mm 0.00 in/hr0.0 mm/hr 0.00 in0.0 mm
04:30 AM 31.4°F-0.3°C 29.3°F-1.5°C 92% Calm Calm -- 29.39 in995.3 mb 0.00 in0.0 mm 0.00 in/hr0.0 mm/hr 0.00 in0.0 mm
04:40 AM 31.4°F-0.3°C 29.6°F-1.3°C 93% Calm Calm -- 29.39 in995.3 mb 0.00 in0.0 mm 0.00 in/hr0.0 mm/hr 0.00 in0.0 mm
04:50 AM 31.4°F-0.3°C 29.6°F-1.3°C 93% Calm Calm -- 29.39 in995.3 mb 0.00 in0.0 mm 0.00 in/hr0.0 mm/hr 0.00 in0.0 mm
05:00 AM 31.2°F-0.4°C 29.4°F-1.4°C 93% Calm Calm -- 29.38 in994.9 mb 0.00 in0.0 mm 0.00 in/hr0.0 mm/hr 0.00 in0.0 mm
05:10 AM 31.3°F-0.4°C 29.5°F-1.4°C 93% Calm Calm -- 29.38 in994.9 mb 0.00 in0.0 mm 0.00 in/hr0.0 mm/hr 0.00 in0.0 mm
05:20 AM 31.5°F-0.3°C 29.7°F-1.3°C 93% Calm Calm -- 29.37 in994.6 mb 0.00 in0.0 mm 0.00 in/hr0.0 mm/hr 0.00 in0.0 mm
05:30 AM 31.7°F-0.2°C 29.9°F-1.2°C 93% Calm Calm -- 29.37 in994.6 mb 0.00 in0.0 mm 0.00 in/hr0.0 mm/hr 0.00 in0.0 mm
05:40 AM 31.9°F-0.1°C 30.1°F-1.1°C 93% Calm Calm -- 29.37 in994.6 mb 0.00 in0.0 mm 0.00 in/hr0.0 mm/hr 0.00 in0.0 mm
05:50 AM 32.0°F0.0°C 30.5°F-0.8°C 94% Calm Calm -- 29.36 in994.2 mb 0.00 in0.0 mm 0.00 in/hr0.0 mm/hr 0.00 in0.0 mm
06:00 AM 32.3°F0.2°C 30.5°F-0.8°C 93% Calm Calm -- 29.36 in994.2 mb 0.00 in0.0 mm 0.00 in/hr0.0 mm/hr 0.00 in0.0 mm
06:10 AM 32.6°F0.3°C 31.1°F-0.5°C 94% Calm Calm -- 29.36 in994.2 mb 0.00 in0.0 mm 0.00 in/hr0.0 mm/hr 0.00 in0.0 mm
06:20 AM 33.0°F0.6°C 31.2°F-0.4°C 93% Calm Calm -- 29.36 in994.2 mb 0.00 in0.0 mm 0.00 in/hr0.0 mm/hr 0.00 in0.0 mm
06:30 AM 33.4°F0.8°C 31.6°F-0.2°C 93% Calm Calm 1.0 mph1.6 kmh 29.36 in994.2 mb 0.00 in0.0 mm 0.00 in/hr0.0 mm/hr 0.00 in0.0 mm
06:40 AM 33.8°F1.0°C 31.7°F-0.2°C 92% Calm Calm -- 29.37 in994.6 mb 0.00 in0.0 mm 0.00 in/hr0.0 mm/hr 0.00 in0.0 mm
06:50 AM 34.1°F1.2°C 32.3°F0.2°C 93% Calm Calm -- 29.37 in994.6 mb 0.00 in0.0 mm 0.00 in/hr0.0 mm/hr 0.00 in0.0 mm
07:00 AM 34.1°F1.2°C 32.3°F0.2°C 93% Calm Calm -- 29.38 in994.9 mb 0.00 in0.0 mm 0.00 in/hr0.0 mm/hr 0.00 in0.0 mm
07:10 AM 34.2°F1.2°C 32.4°F0.2°C 93% Calm Calm -- 29.38 in994.9 mb 0.01 in0.3 mm 0.06 in/hr1.5 mm/hr 0.01 in0.3 mm
07:20 AM 34.3°F1.3°C 32.8°F0.4°C 94% 1.0 mph SSW1.6 kmh SSW 1.0 mph1.6 kmh 29.37 in994.6 mb 0.01 in0.3 mm 0.06 in/hr1.5 mm/hr 0.01 in0.3 mm
07:30 AM 34.1°F1.2°C 32.9°F0.5°C 95% Calm Calm -- 29.36 in994.2 mb 0.01 in0.3 mm 0.06 in/hr1.5 mm/hr 0.02 in0.5 mm
07:40 AM 34.4°F1.3°C 33.4°F0.8°C 96% Calm Calm -- 29.37 in994.6 mb 0.00 in0.0 mm 0.00 in/hr0.0 mm/hr 0.02 in0.5 mm
07:50 AM 34.4°F1.3°C 33.4°F0.8°C 96% Calm Calm -- 29.37 in994.6 mb 0.00 in0.0 mm 0.00 in/hr0.0 mm/hr 0.02 in0.5 mm
08:00 AM 34.3°F1.3°C 33.3°F0.7°C 96% Calm Calm -- 29.37 in994.6 mb 0.00 in0.0 mm 0.00 in/hr0.0 mm/hr 0.02 in0.5 mm
08:10 AM 34.3°F1.3°C 33.3°F0.7°C 96% Calm Calm -- 29.37 in994.6 mb 0.00 in0.0 mm 0.00 in/hr0.0 mm/hr 0.02 in0.5 mm
08:20 AM 34.4°F1.3°C 33.4°F0.8°C 96% Calm Calm -- 29.37 in994.6 mb 0.00 in0.0 mm 0.00 in/hr0.0 mm/hr 0.02 in0.5 mm
08:30 AM 34.7°F1.5°C 33.9°F1.1°C 97% Calm Calm -- 29.37 in994.6 mb 0.00 in0.0 mm 0.00 in/hr0.0 mm/hr 0.02 in0.5 mm
08:40 AM 35.0°F1.7°C 34.2°F1.2°C 97% Calm Calm -- 29.37 in994.6 mb 0.01 in0.3 mm 0.06 in/hr1.5 mm/hr 0.03 in0.8 mm
08:50 AM 35.2°F1.8°C 34.4°F1.3°C 97% Calm Calm 1.0 mph1.6 kmh 29.38 in994.9 mb 0.00 in0.0 mm 0.00 in/hr0.0 mm/hr 0.03 in0.8 mm
09:00 AM 35.9°F2.2°C 35.4°F1.9°C 98% Calm Calm -- 29.38 in994.9 mb 0.01 in0.3 mm 0.01 in/hr0.3 mm/hr 0.04 in1.0 mm
09:10 AM 36.5°F2.5°C 36.0°F2.2°C 98% Calm Calm -- 29.37 in994.6 mb 0.02 in0.5 mm 0.12 in/hr3.0 mm/hr 0.06 in1.5 mm
09:20 AM 36.9°F2.7°C 36.4°F2.4°C 98% Calm Calm -- 29.36 in994.2 mb 0.01 in0.3 mm 0.06 in/hr1.5 mm/hr 0.06 in1.5 mm
09:30 AM 37.3°F2.9°C 36.8°F2.7°C 98% Calm Calm -- 29.36 in994.2 mb 0.00 in0.0 mm 0.00 in/hr0.0 mm/hr 0.06 in1.5 mm
09:40 AM 37.5°F3.1°C 37.0°F2.8°C 98% Calm Calm -- 29.36 in994.2 mb 0.00 in0.0 mm 0.00 in/hr0.0 mm/hr 0.06 in1.5 mm
09:50 AM 38.4°F3.6°C 37.9°F3.3°C 98% Calm Calm -- 29.36 in994.2 mb 0.00 in0.0 mm 0.00 in/hr0.0 mm/hr 0.06 in1.5 mm
10:00 AM 39.5°F4.2°C 39.2°F4.0°C 99% Calm Calm -- 29.36 in994.2 mb 0.00 in0.0 mm 0.00 in/hr0.0 mm/hr 0.06 in1.5 mm
10:10 AM 40.5°F4.7°C 40.2°F4.6°C 99% Calm Calm 1.0 mph1.6 kmh 29.36 in994.2 mb 0.00 in0.0 mm 0.00 in/hr0.0 mm/hr 0.06 in1.5 mm
10:20 AM 41.4°F5.2°C 41.2°F5.1°C 99% 1.0 mph SSW1.6 kmh SSW 1.0 mph1.6 kmh 29.36 in994.2 mb 0.00 in0.0 mm 0.00 in/hr0.0 mm/hr 0.06 in1.5 mm
10:30 AM 42.4°F5.8°C 41.9°F5.5°C 98% 1.0 mph SE1.6 kmh SE 3.0 mph4.8 kmh 29.37 in994.6 mb 0.00 in0.0 mm 0.00 in/hr0.0 mm/hr 0.06 in1.5 mm
10:40 AM 42.8°F6.0°C 41.7°F5.4°C 96% Calm Calm 1.0 mph1.6 kmh 29.36 in994.2 mb 0.00 in0.0 mm 0.00 in/hr0.0 mm/hr 0.06 in1.5 mm
10:50 AM 43.3°F6.3°C 41.4°F5.2°C 93% 2.0 mph WSW3.2 kmh WSW 3.0 mph4.8 kmh 29.36 in994.2 mb 0.00 in0.0 mm 0.00 in/hr0.0 mm/hr 0.06 in1.5 mm
11:00 AM 43.8°F6.6°C 41.6°F5.3°C 92% 1.0 mph SSW1.6 kmh SSW 3.0 mph4.8 kmh 29.37 in994.6 mb 0.00 in0.0 mm 0.00 in/hr0.0 mm/hr 0.06 in1.5 mm
11:10 AM 44.3°F6.8°C 41.8°F5.4°C 91% 3.0 mph SSW4.8 kmh SSW 6.0 mph9.7 kmh 29.37 in994.6 mb 0.00 in0.0 mm 0.00 in/hr0.0 mm/hr 0.06 in1.5 mm
11:20 AM 44.7°F7.1°C 42.2°F5.7°C 91% 2.0 mph WSW3.2 kmh WSW 5.0 mph8.0 kmh 29.37 in994.6 mb 0.00 in0.0 mm 0.00 in/hr0.0 mm/hr 0.06 in1.5 mm
11:30 AM 44.5°F6.9°C 41.7°F5.4°C 90% Calm Calm 3.0 mph4.8 kmh 29.37 in994.6 mb 0.00 in0.0 mm 0.00 in/hr0.0 mm/hr 0.06 in1.5 mm
11:40 AM 43.5°F6.4°C 40.2°F4.6°C 88% 8.0 mph W12.9 kmh W 14.0 mph22.5 kmh 29.38 in994.9 mb 0.01 in0.3 mm 0.06 in/hr1.5 mm/hr 0.07 in1.8 mm
11:50 AM 42.4°F5.8°C 39.7°F4.3°C 90% 1.0 mph W1.6 kmh W 2.0 mph3.2 kmh 29.38 in994.9 mb 0.00 in0.0 mm 0.00 in/hr0.0 mm/hr 0.07 in1.8 mm
12:00 PM 42.0°F5.6°C 39.8°F4.3°C 92% 2.0 mph WNW3.2 kmh WNW 3.0 mph4.8 kmh 29.38 in994.9 mb 0.00 in0.0 mm 0.00 in/hr0.0 mm/hr 0.07 in1.8 mm
12:10 PM 42.0°F5.6°C 40.1°F4.5°C 93% 2.0 mph WSW3.2 kmh WSW 3.0 mph4.8 kmh 29.38 in994.9 mb 0.00 in0.0 mm 0.00 in/hr0.0 mm/hr 0.07 in1.8 mm
12:20 PM 41.8°F5.4°C 39.7°F4.3°C 92% 2.0 mph W3.2 kmh W 3.0 mph4.8 kmh 29.39 in995.3 mb 0.00 in0.0 mm 0.00 in/hr0.0 mm/hr 0.07 in1.8 mm
12:30 PM 41.7°F5.4°C 39.8°F4.3°C 93% 3.0 mph NE4.8 kmh NE 5.0 mph8.0 kmh 29.40 in995.6 mb 0.00 in0.0 mm 0.00 in/hr0.0 mm/hr 0.07 in1.8 mm
12:40 PM 41.9°F5.5°C 40.0°F4.4°C 93% 1.0 mph S1.6 kmh S 2.0 mph3.2 kmh 29.39 in995.3 mb 0.00 in0.0 mm 0.00 in/hr0.0 mm/hr 0.07 in1.8 mm
12:50 PM 42.3°F5.7°C 40.1°F4.5°C 92% 1.0 mph SW1.6 kmh SW 2.0 mph3.2 kmh 29.39 in995.3 mb 0.00 in0.0 mm 0.00 in/hr0.0 mm/hr 0.07 in1.8 mm
01:00 PM 42.6°F5.9°C 39.9°F4.4°C 90% 2.0 mph SSW3.2 kmh SSW 3.0 mph4.8 kmh 29.39 in995.3 mb 0.00 in0.0 mm 0.00 in/hr0.0 mm/hr 0.07 in1.8 mm
01:10 PM 43.1°F6.2°C 39.5°F4.2°C 87% 1.0 mph S1.6 kmh S 5.0 mph8.0 kmh 29.39 in995.3 mb 0.00 in0.0 mm 0.00 in/hr0.0 mm/hr 0.07 in1.8 mm
01:20 PM 43.5°F6.4°C 39.3°F4.1°C 85% 2.0 mph S3.2 kmh S 6.0 mph9.7 kmh 29.39 in995.3 mb 0.00 in0.0 mm 0.00 in/hr0.0 mm/hr 0.07 in1.8 mm
01:30 PM 43.4°F6.3°C 38.3°F3.5°C 82% 3.0 mph N4.8 kmh N 8.0 mph12.9 kmh 29.40 in995.6 mb 0.00 in0.0 mm 0.00 in/hr0.0 mm/hr 0.07 in1.8 mm
01:40 PM 43.0°F6.1°C 36.6°F2.6°C 78% 1.0 mph NW1.6 kmh NW 5.0 mph8.0 kmh 29.40 in995.6 mb 0.00 in0.0 mm 0.00 in/hr0.0 mm/hr 0.07 in1.8 mm
01:50 PM 43.1°F6.2°C 38.0°F3.3°C 82% 2.0 mph W3.2 kmh W 6.0 mph9.7 kmh 29.41 in995.9 mb 0.00 in0.0 mm 0.00 in/hr0.0 mm/hr 0.07 in1.8 mm
02:00 PM 42.4°F5.8°C 37.0°F2.8°C 81% 1.0 mph NE1.6 kmh NE 3.0 mph4.8 kmh 29.42 in996.3 mb 0.00 in0.0 mm 0.00 in/hr0.0 mm/hr 0.07 in1.8 mm
02:10 PM 41.9°F5.5°C 36.2°F2.3°C 80% 3.0 mph NE4.8 kmh NE 7.0 mph11.3 kmh 29.43 in996.6 mb 0.00 in0.0 mm 0.00 in/hr0.0 mm/hr 0.07 in1.8 mm
02:20 PM 41.6°F5.3°C 34.9°F1.6°C 77% 2.0 mph NW3.2 kmh NW 3.0 mph4.8 kmh 29.43 in996.6 mb 0.00 in0.0 mm 0.00 in/hr0.0 mm/hr 0.07 in1.8 mm
02:30 PM 41.9°F5.5°C 34.6°F1.4°C 75% 5.0 mph SSE8.0 kmh SSE 7.0 mph11.3 kmh 29.45 in997.3 mb 0.00 in0.0 mm 0.00 in/hr0.0 mm/hr 0.07 in1.8 mm
02:40 PM 41.0°F5.0°C 34.4°F1.3°C 77% 5.0 mph NW8.0 kmh NW 6.0 mph9.7 kmh 29.46 in997.6 mb 0.00 in0.0 mm 0.00 in/hr0.0 mm/hr 0.07 in1.8 mm
02:50 PM 40.4°F4.7°C 34.1°F1.2°C 78% 5.0 mph NW8.0 kmh NW 10.0 mph16.1 kmh 29.46 in997.6 mb 0.00 in0.0 mm 0.00 in/hr0.0 mm/hr 0.07 in1.8 mm
03:00 PM 40.8°F4.9°C 34.5°F1.4°C 78% 5.0 mph NW8.0 kmh NW 6.0 mph9.7 kmh 29.46 in997.6 mb 0.00 in0.0 mm 0.00 in/hr0.0 mm/hr 0.07 in1.8 mm
03:10 PM 41.1°F5.1°C 34.4°F1.3°C 77% 3.0 mph SW4.8 kmh SW 7.0 mph11.3 kmh 29.47 in998.0 mb 0.00 in0.0 mm 0.00 in/hr0.0 mm/hr 0.07 in1.8 mm
03:20 PM 42.6°F5.9°C 35.2°F1.8°C 75% 3.0 mph NW4.8 kmh NW 6.0 mph9.7 kmh 29.47 in998.0 mb 0.00 in0.0 mm 0.00 in/hr0.0 mm/hr 0.07 in1.8 mm
03:30 PM 43.1°F6.2°C 34.0°F1.1°C 70% 3.0 mph NW4.8 kmh NW 6.0 mph9.7 kmh 29.47 in998.0 mb 0.00 in0.0 mm 0.00 in/hr0.0 mm/hr 0.07 in1.8 mm
03:40 PM 42.0°F5.6°C 32.9°F0.5°C 70% 5.0 mph NW8.0 kmh NW 17.0 mph27.4 kmh 29.48 in998.3 mb 0.00 in0.0 mm 0.00 in/hr0.0 mm/hr 0.07 in1.8 mm
03:50 PM 40.7°F4.8°C 32.0°F0.0°C 71% 6.0 mph NW9.7 kmh NW 7.0 mph11.3 kmh 29.49 in998.6 mb 0.00 in0.0 mm 0.00 in/hr0.0 mm/hr 0.07 in1.8 mm
04:00 PM 40.5°F4.7°C 31.8°F-0.1°C 71% 1.0 mph N1.6 kmh N 3.0 mph4.8 kmh 29.50 in999.0 mb 0.00 in0.0 mm 0.00 in/hr0.0 mm/hr 0.07 in1.8 mm
04:10 PM 40.5°F4.7°C 31.8°F-0.1°C 71% 6.0 mph WSW9.7 kmh WSW 7.0 mph11.3 kmh 29.51 in999.3 mb 0.00 in0.0 mm 0.00 in/hr0.0 mm/hr 0.07 in1.8 mm
04:20 PM 40.9°F4.9°C 31.5°F-0.3°C 69% 6.0 mph SW9.7 kmh SW 6.0 mph9.7 kmh 29.52 in999.7 mb 0.00 in0.0 mm 0.00 in/hr0.0 mm/hr 0.07 in1.8 mm
04:30 PM 41.6°F5.3°C 30.4°F-0.9°C 64% 3.0 mph W4.8 kmh W 13.0 mph20.9 kmh 29.53 in1000.0 mb 0.00 in0.0 mm 0.00 in/hr0.0 mm/hr 0.07 in1.8 mm
04:40 PM 41.9°F5.5°C 29.8°F-1.2°C 62% 3.0 mph N4.8 kmh N 3.0 mph4.8 kmh 29.53 in1000.0 mb 0.00 in0.0 mm 0.00 in/hr0.0 mm/hr 0.07 in1.8 mm
04:50 PM 41.9°F5.5°C 29.8°F-1.2°C 62% 3.0 mph N4.8 kmh N 3.0 mph4.8 kmh 29.53 in1000.0 mb 0.00 in0.0 mm 0.00 in/hr0.0 mm/hr 0.07 in1.8 mm
05:00 PM 41.5°F5.3°C 28.2°F-2.1°C 59% 2.0 mph NW3.2 kmh NW 2.0 mph3.2 kmh 29.54 in1000.3 mb 0.00 in0.0 mm 0.00 in/hr0.0 mm/hr 0.07 in1.8 mm
05:10 PM 41.5°F5.3°C 27.8°F-2.3°C 58% 2.0 mph W3.2 kmh W 3.0 mph4.8 kmh 29.54 in1000.3 mb 0.00 in0.0 mm 0.00 in/hr0.0 mm/hr 0.07 in1.8 mm
05:20 PM 41.2°F5.1°C 27.1°F-2.7°C 57% 3.0 mph NW4.8 kmh NW 7.0 mph11.3 kmh 29.54 in1000.3 mb 0.00 in0.0 mm 0.00 in/hr0.0 mm/hr 0.07 in1.8 mm
05:30 PM 40.9°F4.9°C 26.8°F-2.9°C 57% 2.0 mph NW3.2 kmh NW 8.0 mph12.9 kmh 29.54 in1000.3 mb 0.00 in0.0 mm 0.00 in/hr0.0 mm/hr 0.07 in1.8 mm
05:40 PM 40.5°F4.7°C 26.0°F-3.3°C 56% 5.0 mph WSW8.0 kmh WSW 7.0 mph11.3 kmh 29.55 in1000.7 mb 0.00 in0.0 mm 0.00 in/hr0.0 mm/hr 0.07 in1.8 mm
05:50 PM 40.0°F4.4°C 26.0°F-3.3°C 57% 2.0 mph SW3.2 kmh SW 5.0 mph8.0 kmh 29.56 in1001.0 mb 0.00 in0.0 mm 0.00 in/hr0.0 mm/hr 0.07 in1.8 mm
06:00 PM 39.5°F4.2°C 25.6°F-3.6°C 57% 3.0 mph W4.8 kmh W 5.0 mph8.0 kmh 29.58 in1001.7 mb 0.00 in0.0 mm 0.00 in/hr0.0 mm/hr 0.07 in1.8 mm
06:10 PM 39.1°F3.9°C 25.1°F-3.8°C 57% 2.0 mph SW3.2 kmh SW 3.0 mph4.8 kmh 29.59 in1002.0 mb 0.00 in0.0 mm 0.00 in/hr0.0 mm/hr 0.07 in1.8 mm
06:20 PM 38.7°F3.7°C 25.6°F-3.6°C 59% 1.0 mph N1.6 kmh N 3.0 mph4.8 kmh 29.60 in1002.4 mb 0.00 in0.0 mm 0.00 in/hr0.0 mm/hr 0.07 in1.8 mm
06:30 PM 38.4°F3.6°C 25.7°F-3.5°C 60% 2.0 mph W3.2 kmh W 2.0 mph3.2 kmh 29.61 in1002.7 mb 0.00 in0.0 mm 0.00 in/hr0.0 mm/hr 0.07 in1.8 mm
06:40 PM 38.2°F3.4°C 26.3°F-3.2°C 62% 1.0 mph WSW1.6 kmh WSW 2.0 mph3.2 kmh 29.61 in1002.7 mb 0.00 in0.0 mm 0.00 in/hr0.0 mm/hr 0.07 in1.8 mm
06:50 PM 37.9°F3.3°C 26.5°F-3.1°C 63% 2.0 mph WSW3.2 kmh WSW 3.0 mph4.8 kmh 29.62 in1003.0 mb 0.00 in0.0 mm 0.00 in/hr0.0 mm/hr 0.07 in1.8 mm
07:00 PM 37.6°F3.1°C 26.9°F-2.8°C 65% Calm Calm 1.0 mph1.6 kmh 29.63 in1003.4 mb 0.00 in0.0 mm 0.00 in/hr0.0 mm/hr 0.07 in1.8 mm
07:10 PM 37.4°F3.0°C 27.1°F-2.7°C 66% 2.0 mph WNW3.2 kmh WNW 3.0 mph4.8 kmh 29.63 in1003.4 mb 0.00 in0.0 mm 0.00 in/hr0.0 mm/hr 0.07 in1.8 mm
07:20 PM 37.4°F3.0°C 26.7°F-2.9°C 65% 1.0 mph SSE1.6 kmh SSE 5.0 mph8.0 kmh 29.64 in1003.7 mb 0.00 in0.0 mm 0.00 in/hr0.0 mm/hr 0.07 in1.8 mm
07:30 PM 37.3°F2.9°C 27.0°F-2.8°C 66% 1.0 mph SW1.6 kmh SW 5.0 mph8.0 kmh 29.64 in1003.7 mb 0.00 in0.0 mm 0.00 in/hr0.0 mm/hr 0.07 in1.8 mm
07:40 PM 37.2°F2.9°C 26.9°F-2.8°C 66% 2.0 mph WNW3.2 kmh WNW 3.0 mph4.8 kmh 29.66 in1004.4 mb 0.00 in0.0 mm 0.00 in/hr0.0 mm/hr 0.07 in1.8 mm
07:50 PM 37.2°F2.9°C 26.9°F-2.8°C 66% 3.0 mph WSW4.8 kmh WSW 6.0 mph9.7 kmh 29.66 in1004.4 mb 0.00 in0.0 mm 0.00 in/hr0.0 mm/hr 0.07 in1.8 mm
08:00 PM 37.3°F2.9°C 27.0°F-2.8°C 66% Calm Calm 3.0 mph4.8 kmh 29.66 in1004.4 mb 0.00 in0.0 mm 0.00 in/hr0.0 mm/hr 0.07 in1.8 mm
08:10 PM 37.2°F2.9°C 27.2°F-2.7°C 67% 2.0 mph SSW3.2 kmh SSW 6.0 mph9.7 kmh 29.66 in1004.4 mb 0.00 in0.0 mm 0.00 in/hr0.0 mm/hr 0.07 in1.8 mm
08:20 PM 37.0°F2.8°C 27.1°F-2.7°C 67% Calm Calm -- 29.67 in1004.7 mb 0.00 in0.0 mm 0.00 in/hr0.0 mm/hr 0.07 in1.8 mm
08:30 PM 36.6°F2.6°C 27.0°F-2.8°C 68% 1.0 mph WSW1.6 kmh WSW 3.0 mph4.8 kmh 29.66 in1004.4 mb 0.00 in0.0 mm 0.00 in/hr0.0 mm/hr 0.07 in1.8 mm
08:40 PM 36.2°F2.3°C 27.0°F-2.8°C 69% Calm Calm 2.0 mph3.2 kmh 29.65 in1004.1 mb 0.00 in0.0 mm 0.00 in/hr0.0 mm/hr 0.07 in1.8 mm
08:50 PM 36.0°F2.2°C 27.2°F-2.7°C 70% 1.0 mph SW1.6 kmh SW 1.0 mph1.6 kmh 29.66 in1004.4 mb 0.00 in0.0 mm 0.00 in/hr0.0 mm/hr 0.07 in1.8 mm
09:00 PM 35.9°F2.2°C 27.1°F-2.7°C 70% 1.0 mph NW1.6 kmh NW -- 29.68 in1005.1 mb 0.00 in0.0 mm 0.00 in/hr0.0 mm/hr 0.07 in1.8 mm
09:10 PM 35.3°F1.8°C 26.8°F-2.9°C 71% Calm Calm 1.0 mph1.6 kmh 29.68 in1005.1 mb 0.00 in0.0 mm 0.00 in/hr0.0 mm/hr 0.07 in1.8 mm
09:20 PM 34.8°F1.6°C 27.0°F-2.8°C 73% Calm Calm 1.0 mph1.6 kmh 29.68 in1005.1 mb 0.00 in0.0 mm 0.00 in/hr0.0 mm/hr 0.07 in1.8 mm
09:30 PM 34.6°F1.4°C 26.8°F-2.9°C 73% 1.0 mph WNW1.6 kmh WNW 3.0 mph4.8 kmh 29.69 in1005.4 mb 0.00 in0.0 mm 0.00 in/hr0.0 mm/hr 0.07 in1.8 mm
09:40 PM 34.7°F1.5°C 26.9°F-2.8°C 73% Calm Calm 2.0 mph3.2 kmh 29.69 in1005.4 mb 0.00 in0.0 mm 0.00 in/hr0.0 mm/hr 0.07 in1.8 mm
09:50 PM 34.5°F1.4°C 26.7°F-2.9°C 73% Calm Calm 1.0 mph1.6 kmh 29.70 in1005.8 mb 0.00 in0.0 mm 0.00 in/hr0.0 mm/hr 0.07 in1.8 mm
10:00 PM 34.1°F1.2°C 26.7°F-2.9°C 74% 1.0 mph WSW1.6 kmh WSW -- 29.70 in1005.8 mb 0.00 in0.0 mm 0.00 in/hr0.0 mm/hr 0.07 in1.8 mm
10:30 PM 33.2°F0.7°C 26.8°F-2.9°C 77% Calm Calm -- 29.71 in1006.1 mb 0.00 in0.0 mm 0.00 in/hr0.0 mm/hr 0.07 in1.8 mm
10:40 PM 32.6°F0.3°C 26.8°F-2.9°C 79% Calm Calm -- 29.71 in1006.1 mb 0.00 in0.0 mm 0.00 in/hr0.0 mm/hr 0.07 in1.8 mm
10:50 PM 32.0°F0.0°C 26.9°F-2.8°C 81% Calm Calm -- 29.71 in1006.1 mb 0.00 in0.0 mm 0.00 in/hr0.0 mm/hr 0.07 in1.8 mm
11:00 PM 31.6°F-0.2°C 26.7°F-2.9°C 82% Calm Calm -- 29.72 in1006.4 mb 0.00 in0.0 mm 0.00 in/hr0.0 mm/hr 0.07 in1.8 mm
11:10 PM 31.2°F-0.4°C 26.3°F-3.2°C 82% Calm Calm -- 29.72 in1006.4 mb 0.00 in0.0 mm 0.00 in/hr0.0 mm/hr 0.07 in1.8 mm
11:20 PM 30.8°F-0.7°C 26.2°F-3.2°C 83% Calm Calm -- 29.72 in1006.4 mb 0.00 in0.0 mm 0.00 in/hr0.0 mm/hr 0.07 in1.8 mm
11:30 PM 30.8°F-0.7°C 26.0°F-3.3°C 82% Calm Calm -- 29.72 in1006.4 mb 0.00 in0.0 mm 0.00 in/hr0.0 mm/hr 0.07 in1.8 mm
11:40 PM 31.1°F-0.5°C 25.9°F-3.4°C 81% 1.0 mph N1.6 kmh N 3.0 mph4.8 kmh 29.73 in1006.8 mb 0.00 in0.0 mm 0.00 in/hr0.0 mm/hr 0.07 in1.8 mm
11:50 PM 31.2°F-0.4°C 25.7°F-3.5°C 80% 1.0 mph N1.6 kmh N 1.0 mph1.6 kmh 29.74 in1007.1 mb 0.00 in0.0 mm 0.00 in/hr0.0 mm/hr 0.07 in1.8 mm